Home > Products > Valid Products > TAF

000
FTUS43 KDDC 250520
TAFGCK
TAF
KGCK 250520Z 2506/2606 VRB06KT P6SM SKC
     FM251800 16012G18KT P6SM SKC
     FM252300 14010KT P6SM SKC=



000
FTUS43 KDDC 250520
TAFHYS
TAF
KHYS 250520Z 2506/2606 VRB06KT P6SM SKC
     FM251800 12008G15KT P6SM SKC
     FM252300 12006KT P6SM SKC=



000
FTUS43 KDDC 250520
TAFDDC
TAF
KDDC 250520Z 2506/2606 VRB06KT P6SM SKC
     FM251800 15012G18KT P6SM SKC
     FM252300 16010KT P6SM SKC=



000
FTUS43 KDDC 242343 RRA
TAFGCK
TAF
KGCK 242343Z 2500/2524 VRB06KT P6SM SKC
     FM251700 14012G17KT P6SM SKC
     FM252300 15011KT P6SM SCT250=



000
FTUS43 KDDC 242343 RRA
TAFDDC
TAF
KDDC 242343Z 2500/2524 VRB06KT P6SM SKC
     FM251700 14012G17KT P6SM SKC
     FM252200 16010KT P6SM SCT250=



000
FTUS43 KDDC 242343 RRA
TAFHYS
TAF
KHYS 242343Z 2500/2524 VRB06KT P6SM SKC
     FM251700 14012KT P6SM SKC=



000
FTUS43 KDDC 241725
TAFDDC
TAF
KDDC 241725Z 2418/2518 22009KT P6SM SCT200
     FM250000 VRB06KT P6SM SCT250
     FM251700 14012KT P6SM SKC=



000
FTUS43 KDDC 241725
TAFGCK
TAF
KGCK 241725Z 2418/2518 22009KT P6SM SCT200
     FM250000 VRB06KT P6SM SCT250
     FM251700 14012KT P6SM SKC=



000
FTUS43 KDDC 241725
TAFHYS
TAF
KHYS 241725Z 2418/2518 22009KT P6SM SCT200
     FM250000 VRB06KT P6SM SCT250
     FM251700 14012KT P6SM SKC=



000
FTUS43 KDDC 241234 AAA
TAFGCK
TAF AMD
KGCK 241234Z 2413/2512 23005KT 1/2SM FG SCT200
     FM241400 24009KT P6SM SCT200
     FM250000 15006KT P6SM SKC=



000
FTUS43 KDDC 241120
TAFDDC
TAF
KDDC 241120Z 2412/2512 21007KT 4SM BR SCT200
     FM241400 23008KT P6SM SCT250
     FM250000 18006KT P6SM SKC=



000
FTUS43 KDDC 241120
TAFGCK
TAF
KGCK 241120Z 2412/2512 21006KT 2SM BR SCT200
     FM241400 24009KT P6SM SCT200
     FM250000 15006KT P6SM SKC=



000
FTUS43 KDDC 241120
TAFHYS
TAF
KHYS 241120Z 2412/2512 20006KT 3SM BR SCT200
     FM241400 23006KT P6SM SCT200=



000
FTUS43 KDDC 241030 AAA
TAFGCK
TAF AMD
KGCK 241030Z 2411/2506 21006KT 1SM BR SCT200
     FM241400 24009KT P6SM SCT200=



000
FTUS43 KDDC 241030 AAA
TAFHYS
TAF AMD
KHYS 241030Z 2411/2506 20006KT 1SM BR SCT200
     FM241400 24009KT P6SM SCT200=



000
FTUS43 KDDC 240520
TAFDDC
TAF
KDDC 240520Z 2406/2506 20007KT 4SM BR SCT200
     FM241400 24009KT P6SM SKC=



000
FTUS43 KDDC 240520
TAFGCK
TAF
KGCK 240520Z 2406/2506 18006KT 4SM BR SCT200
     FM241400 24009KT P6SM SCT200=



000
FTUS43 KDDC 240520
TAFHYS
TAF
KHYS 240520Z 2406/2506 18006KT 4SM BR SCT200
     FM241400 24009KT P6SM SCT200=



000
FTUS43 KDDC 232322
TAFDDC
TAF
KDDC 232322Z 2400/2424 18006KT P6SM SKC
     FM241200 23008KT 4SM BR SKC
     FM241400 24009KT P6SM SKC=



000
FTUS43 KDDC 232322
TAFGCK
TAF
KGCK 232322Z 2400/2424 18006KT P6SM SKC
     FM241200 VRB05KT 1SM BR SKC
     FM241400 24009KT P6SM SKC=



000
FTUS43 KDDC 232322
TAFHYS
TAF
KHYS 232322Z 2400/2424 18006KT P6SM SKC
     FM241200 23006KT 4SM BR SKC
     FM241400 24009KT P6SM SKC=



000
FTUS43 KDDC 231720
TAFDDC
TAF
KDDC 231720Z 2318/2418 16005KT 3SM BR OVC003
     FM231800 16005KT P6SM SKC
     FM241400 23008KT 4SM BR SKC
     FM241600 24009KT P6SM SKC=



000
FTUS43 KDDC 231720
TAFGCK
TAF
KGCK 231720Z 2318/2418 10005KT P6SM SCT020
     FM241200 24006KT 1/4SM FG SCT250
     FM241600 26009KT P6SM SCT250=



000
FTUS43 KDDC 231720
TAFHYS
TAF
KHYS 231720Z 2318/2418 20003KT 1/2SM FG OVC002
     FM231900 16005KT P6SM SKC
     FM241200 22005KT P6SM FEW250
     FM241300 22005KT 4SM BR SCT250
     FM241500 24008KT P6SM SKC=



000
FTUS43 KDDC 231615 AAB
TAFGCK
TAF AMD
KGCK 231615Z 2316/2412 00000KT 4SM BR OVC009
     FM231700 16006KT P6SM SCT035=



000
FTUS43 KDDC 231615 AAB
TAFDDC
TAF AMD
KDDC 231615Z 2316/2412 16005KT 3SM BR OVC003
     FM231700 16007KT P6SM SCT035=



000
FTUS43 KDDC 231615 AAB
TAFGCK
TAF AMD
KGCK 231615Z 2316/2412 00000KT 4SM BR OVC009
     FM231700 16006KT P6SM SCT035=



000
FTUS43 KDDC 231615 AAB
TAFDDC
TAF AMD
KDDC 231615Z 2316/2412 16005KT 3SM BR OVC003
     FM231700 16007KT P6SM SCT035=



000
FTUS43 KDDC 231412 AAA
TAFGCK
TAF AMD
KGCK 231412Z 2314/2412 11004KT 1/2SM FG OVC002
      TEMPO 2314/2316 1/4SM FG VV002
     FM231700 16006KT P6SM SCT035=



000
FTUS43 KDDC 231412 AAA
TAFGCK
TAF AMD
KGCK 231412Z 2314/2412 11004KT 1/2SM FG OVC002
      TEMPO 2314/2316 1/4SM FG VV002
     FM231700 16006KT P6SM SCT035=



000
FTUS43 KDDC 231120
TAFGCK
TAF
KGCK 231120Z 2312/2412 VRB05KT 1SM BR OVC006
      TEMPO 2312/2315 1/4SM FG VV002
     FM231700 16006KT P6SM SCT035=



000
FTUS43 KDDC 231120
TAFHYS
TAF
KHYS 231120Z 2312/2412 VRB05KT 1/2SM FG OVC002
      TEMPO 2312/2315 1/4SM FG VV001
     FM231700 16006KT P6SM SCT035=



000
FTUS43 KDDC 231120
TAFDDC
TAF
KDDC 231120Z 2312/2412 VRB05KT 2SM BR BKN015
      TEMPO 2312/2315 1SM BR
     FM231700 16007KT P6SM SCT035=



000
FTUS43 KDDC 231024 AAD
TAFHYS
TAF AMD
KHYS 231024Z 2310/2406 VRB05KT 1/4SM FG OVC001
      TEMPO 2312/2315 BKN006
     FM231900 16006KT P6SM SCT035=



000
FTUS43 KDDC 231023 AAB
TAFGCK
TAF AMD
KGCK 231023Z 2310/2406 VRB05KT 1SM BR OVC006
      TEMPO 2312/2315 1/2SM FG
     FM231900 16006KT P6SM SCT035=



000
FTUS43 KDDC 231022 AAD
TAFDDC
TAF AMD
KDDC 231022Z 2310/2406 VRB06KT 3SM BR BKN015
     FM231100 VRB05KT 1SM BR OVC006
      TEMPO 2312/2315 1/2SM FG
     FM231800 16007KT P6SM SCT035=



000
FTUS43 KDDC 230932 AAC
TAFHYS
TAF AMD
KHYS 230932Z 2310/2406 VRB05KT 1/2SM FG BKN010
      TEMPO 2312/2315 BKN006
     FM231900 16006KT P6SM SCT035=



000
FTUS43 KDDC 230907 AAB
TAFHYS
TAF AMD
KHYS 230907Z 2309/2406 VRB05KT 1SM BR SCT010
      TEMPO 2312/2315 1/2SM FG BKN006
     FM231900 16006KT P6SM SCT035=



000
FTUS43 KDDC 230847 AAA
TAFHYS
TAF AMD
KHYS 230847Z 2309/2406 VRB06KT P6SM OVC015
     FM231200 VRB05KT 1SM BR OVC006
      TEMPO 2312/2315 1/2SM FG
     FM231900 16006KT P6SM SCT035=



000
FTUS43 KDDC 230846 AAA
TAFGCK
TAF AMD
KGCK 230846Z 2309/2406 VRB06KT 4SM BR OVC010
     FM231100 VRB05KT 1SM BR OVC006
      TEMPO 2312/2315 1/2SM FG
     FM231900 16006KT P6SM SCT035=



000
FTUS43 KDDC 230845 AAA
TAFDDC
TAF AMD
KDDC 230845Z 2309/2406 VRB06KT 4SM BR BKN020
     FM231100 VRB05KT 1SM BR OVC006
      TEMPO 2312/2315 1/2SM FG
     FM231800 16007KT P6SM SCT035=



000
FTUS43 KDDC 230545
TAFDDC
TAF
KDDC 230545Z 2306/2406 20010KT 4SM BR OVC010
     FM230900 VRB05KT 1SM BR OVC006
      TEMPO 2310/2313 1/2SM FG
     FM231700 16006KT P6SM SCT035=



000
FTUS43 KDDC 230545
TAFGCK
TAF
KGCK 230545Z 2306/2406 20010KT 4SM BR OVC010
     FM230900 VRB05KT 1SM BR OVC006
      TEMPO 2310/2313 1/2SM FG
     FM231900 16006KT P6SM SCT035=



000
FTUS43 KDDC 230545
TAFHYS
TAF
KHYS 230545Z 2306/2406 VRB06KT P6SM OVC010
     FM230900 VRB05KT 1SM BR OVC006
      TEMPO 2310/2313 1/2SM FG
     FM231900 16006KT P6SM SCT035=



000
FTUS43 KDDC 230246 AAB
TAFGCK
TAF AMD
KGCK 230246Z 2303/2324 16008KT P6SM OVC009
     FM230600 17008KT 4SM BR OVC005
     FM230900 VRB05KT 1/2SM FG OVC002
     FM231900 16006KT P6SM SCT035=



000
FTUS43 KDDC 230242 AAB
TAFDDC
TAF AMD
KDDC 230242Z 2303/2324 19014KT P6SM OVC009
     FM230600 17008KT 4SM BR BKN006
     FM230900 VRB05KT 1/2SM FG OVC002
     FM231700 16006KT P6SM SCT035=



000
FTUS43 KDDC 230155 AAA
TAFGCK
TAF AMD
KGCK 230155Z 2302/2324 15010KT P6SM BKN012
     FM230600 17008KT 4SM BR OVC007
     FM230900 VRB05KT 1/2SM FG OVC002
     FM231900 16006KT P6SM SCT035=



000
FTUS43 KDDC 230155 AAA
TAFGCK
TAF AMD
KGCK 230155Z 2302/2324 15010KT P6SM BKN012
     FM230600 17008KT 4SM BR OVC007
     FM230900 VRB05KT 1/2SM FG OVC002
     FM231900 16006KT P6SM SCT035=



000
FTUS43 KDDC 230133 AAB
TAFDDC
TAF AMD
KDDC 230133Z 2302/2324 17014KT P6SM BKN010 OVC060
     FM230600 17008KT 4SM BR BKN007
     FM230900 VRB05KT 1/2SM FG OVC005
     FM231700 16006KT P6SM SCT035=



000
FTUS43 KDDC 230133 AAB
TAFDDC
TAF AMD
KDDC 230133Z 2302/2324 17014KT P6SM BKN010 OVC060
     FM230600 17008KT 4SM BR BKN007
     FM230900 VRB05KT 1/2SM FG OVC005
     FM231700 16006KT P6SM SCT035=



000
FTUS43 KDDC 230102 AAA
TAFHYS
TAF AMD
KHYS 230102Z 2301/2324 18007KT P6SM VCTS BKN050CB
     FM230300 17008KT P6SM SCT015
     FM230900 VRB05KT 1/2SM FG OVC005
     FM231900 16006KT P6SM SCT035=



000
FTUS43 KDDC 230102 AAA
TAFHYS
TAF AMD
KHYS 230102Z 2301/2324 18007KT P6SM VCTS BKN050CB
     FM230300 17008KT P6SM SCT015
     FM230900 VRB05KT 1/2SM FG OVC005
     FM231900 16006KT P6SM SCT035=



000
FTUS43 KDDC 230015 AAA
TAFDDC
TAF AMD
KDDC 230015Z 2300/2324 17013KT P6SM SCT014 OVC060
     FM230230 17008KT 4SM BR BKN015
     FM230900 VRB05KT 1/2SM FG OVC005
     FM231700 16006KT P6SM SCT035=



000
FTUS43 KDDC 230015 AAA
TAFDDC
TAF AMD
KDDC 230015Z 2300/2324 17013KT P6SM SCT014 OVC060
     FM230230 17008KT 4SM BR BKN015
     FM230900 VRB05KT 1/2SM FG OVC005
     FM231700 16006KT P6SM SCT035=



000
FTUS43 KDDC 222342
TAFHYS
TAF
KHYS 222342Z 2300/2324 17013KT P6SM SCT060
     FM230400 17008KT P6SM SCT015
     FM230900 VRB05KT 1/2SM FG OVC005
     FM231900 16006KT P6SM SCT035=



000
FTUS43 KDDC 222342
TAFGCK
TAF
KGCK 222342Z 2300/2324 17013KT P6SM SCT060
     FM230400 17008KT P6SM SCT015
     FM230900 VRB05KT 1/2SM FG OVC005
     FM231900 16006KT P6SM SCT035=



000
FTUS43 KDDC 222342
TAFDDC
TAF
KDDC 222342Z 2300/2324 17013KT P6SM SCT060
     FM230400 17008KT 4SM BR SCT015
     FM231100 VRB05KT 1/2SM FG OVC005
     FM231700 16006KT P6SM SCT035=



000
FTUS43 KDDC 221720
TAFHYS
TAF
KHYS 221720Z 2218/2318 19011KT P6SM FEW100
     FM222300 16010KT P6SM VCTS BKN050CB
     FM230400 17010KT P6SM FEW100
     FM231000 17005KT 1SM BR OVC003=



000
FTUS43 KDDC 221720
TAFGCK
TAF
KGCK 221720Z 2218/2318 18015G22KT P6SM SCT100
     FM222300 17012KT P6SM VCTS BKN050CB
     FM230200 17010KT P6SM FEW100
     FM231000 17005KT 1SM BR OVC003=



000
FTUS43 KDDC 221720
TAFDDC
TAF
KDDC 221720Z 2218/2318 18015KT P6SM SCT100
     FM222300 17011KT P6SM VCTS BKN050CB
     FM230300 17010KT P6SM FEW100
     FM231200 17005KT 4SM BR FEW100=



000
FTUS43 KDDC 221720
TAFGCK
TAF
KGCK 221720Z 2218/2318 18015G22KT P6SM SCT100
     FM222300 17012KT P6SM VCTS BKN050CB
     FM230200 17010KT P6SM FEW100
     FM231000 17005KT 1SM BR OVC003=



000
FTUS43 KDDC 221720
TAFDDC
TAF
KDDC 221720Z 2218/2318 18015KT P6SM SCT100
     FM222300 17011KT P6SM VCTS BKN050CB
     FM230300 17010KT P6SM FEW100
     FM231200 17005KT 4SM BR FEW100=



000
FTUS43 KDDC 221720
TAFHYS
TAF
KHYS 221720Z 2218/2318 19011KT P6SM FEW100
     FM222300 16010KT P6SM VCTS BKN050CB
     FM230400 17010KT P6SM FEW100
     FM231000 17005KT 1SM BR OVC003=



000
FTUS43 KDDC 221125
TAFGCK
TAF
KGCK 221125Z 2212/2312 18011KT P6SM FEW080
     FM221500 19015G25KT P6SM BKN050
     FM222300 19015G25KT P6SM VCTS BKN030CB=



000
FTUS43 KDDC 221125
TAFDDC
TAF
KDDC 221125Z 2212/2312 18010KT P6SM SKC
     FM221500 19015G25KT P6SM BKN050
     FM222300 17011KT P6SM VCTS BKN040CB=



000
FTUS43 KDDC 221125
TAFHYS
TAF
KHYS 221125Z 2212/2312 15008KT P6SM SKC
     FM221600 19015G25KT P6SM BKN050
     FM230100 16010KT P6SM VCTS BKN040CB=



000
FTUS43 KDDC 221040 AAA
TAFHYS
TAF AMD
KHYS 221040Z 2211/2306 15008KT P6SM SKC
      TEMPO 2211/2213 6SM BR
     FM221800 19015G25KT P6SM BKN050
     FM230100 16010KT P6SM VCTS BKN040CB=



    US Dept of Commerce
    National Oceanic and Atmospheric Administration
    National Weather Service
    1325 East West Highway
    Silver Spring, MD 20910
    Page Author: NWS Internet Services Team
Disclaimer
Information Quality
Credits
Glossary
Privacy Policy
Freedom of Information Act (FOIA)
About Us
Career Opportunities